sensor_id;sensor_type;location;lat;lon;timestamp;P1;durP1;ratioP1;P2;durP2;ratioP2
31406;SDS011;18043;52.438;4.836;2022-08-01T00:01:16;6.18;;;4.25;;
31406;SDS011;18043;52.438;4.836;2022-08-01T00:03:48;6.28;;;3.90;;
31406;SDS011;18043;52.438;4.836;2022-08-01T00:06:20;5.55;;;3.60;;
31406;SDS011;18043;52.438;4.836;2022-08-01T00:08:53;5.00;;;3.77;;
31406;SDS011;18043;52.438;4.836;2022-08-01T00:11:25;5.72;;;3.15;;
31406;SDS011;18043;52.438;4.836;2022-08-01T00:13:58;6.23;;;3.90;;
31406;SDS011;18043;52.438;4.836;2022-08-01T00:16:31;4.55;;;3.28;;
31406;SDS011;18043;52.438;4.836;2022-08-01T00:19:04;5.43;;;3.13;;
31406;SDS011;18043;52.438;4.836;2022-08-01T00:21:36;8.65;;;3.55;;
31406;SDS011;18043;52.438;4.836;2022-08-01T00:24:08;6.22;;;3.50;;
31406;SDS011;18043;52.438;4.836;2022-08-01T00:26:41;3.80;;;3.10;;
31406;SDS011;18043;52.438;4.836;2022-08-01T00:29:13;5.97;;;3.88;;
31406;SDS011;18043;52.438;4.836;2022-08-01T00:31:46;6.28;;;3.50;;
31406;SDS011;18043;52.438;4.836;2022-08-01T00:34:19;6.18;;;3.88;;
31406;SDS011;18043;52.438;4.836;2022-08-01T00:36:51;5.50;;;3.58;;
31406;SDS011;18043;52.438;4.836;2022-08-01T00:39:23;9.38;;;3.50;;
31406;SDS011;18043;52.438;4.836;2022-08-01T00:41:55;5.32;;;3.60;;
31406;SDS011;18043;52.438;4.836;2022-08-01T00:44:28;6.10;;;3.93;;
31406;SDS011;18043;52.438;4.836;2022-08-01T00:47:02;5.43;;;3.50;;
31406;SDS011;18043;52.438;4.836;2022-08-01T00:49:35;4.55;;;3.38;;
31406;SDS011;18043;52.438;4.836;2022-08-01T00:52:07;6.97;;;3.75;;
31406;SDS011;18043;52.438;4.836;2022-08-01T00:54:40;6.60;;;3.85;;
31406;SDS011;18043;52.438;4.836;2022-08-01T00:57:13;7.38;;;4.28;;
31406;SDS011;18043;52.438;4.836;2022-08-01T00:59:45;7.70;;;3.80;;
31406;SDS011;18043;52.438;4.836;2022-08-01T01:02:19;6.50;;;3.78;;
31406;SDS011;18043;52.438;4.836;2022-08-01T01:04:52;6.70;;;4.13;;
31406;SDS011;18043;52.438;4.836;2022-08-01T01:07:25;5.82;;;3.90;;
31406;SDS011;18043;52.438;4.836;2022-08-01T01:10:09;7.00;;;3.90;;
31406;SDS011;18043;52.438;4.836;2022-08-01T01:12:49;6.53;;;3.95;;
31406;SDS011;18043;52.438;4.836;2022-08-01T01:15:27;5.65;;;4.03;;
31406;SDS011;18043;52.438;4.836;2022-08-01T01:18:09;5.63;;;4.35;;
31406;SDS011;18043;52.438;4.836;2022-08-01T01:20:48;6.32;;;4.00;;
31406;SDS011;18043;52.438;4.836;2022-08-01T01:23:43;8.77;;;4.50;;
31406;SDS011;18043;52.438;4.836;2022-08-01T01:26:28;6.97;;;4.07;;
31406;SDS011;18043;52.438;4.836;2022-08-01T01:29:13;8.32;;;4.63;;
31406;SDS011;18043;52.438;4.836;2022-08-01T01:31:49;9.00;;;4.45;;
31406;SDS011;18043;52.438;4.836;2022-08-01T01:34:26;10.77;;;4.95;;
31406;SDS011;18043;52.438;4.836;2022-08-01T01:37:01;8.80;;;4.82;;
31406;SDS011;18043;52.438;4.836;2022-08-01T01:39:37;6.20;;;4.38;;
31406;SDS011;18043;52.438;4.836;2022-08-01T01:42:11;11.63;;;4.93;;
31406;SDS011;18043;52.438;4.836;2022-08-01T01:44:46;7.17;;;4.37;;
31406;SDS011;18043;52.438;4.836;2022-08-01T01:47:20;8.85;;;5.15;;
31406;SDS011;18043;52.438;4.836;2022-08-01T01:49:54;9.43;;;4.95;;
31406;SDS011;18043;52.438;4.836;2022-08-01T01:52:28;7.63;;;5.10;;
31406;SDS011;18043;52.438;4.836;2022-08-01T01:55:01;12.75;;;5.20;;
31406;SDS011;18043;52.438;4.836;2022-08-01T01:57:39;10.55;;;4.72;;
31406;SDS011;18043;52.438;4.836;2022-08-01T02:00:15;9.75;;;5.28;;
31406;SDS011;18043;52.438;4.836;2022-08-01T02:02:47;7.30;;;5.05;;
31406;SDS011;18043;52.438;4.836;2022-08-01T02:05:21;8.25;;;5.28;;
31406;SDS011;18043;52.438;4.836;2022-08-01T02:07:55;8.93;;;5.35;;
31406;SDS011;18043;52.438;4.836;2022-08-01T02:10:27;6.82;;;4.88;;
31406;SDS011;18043;52.438;4.836;2022-08-01T02:13:01;7.73;;;4.77;;
31406;SDS011;18043;52.438;4.836;2022-08-01T02:15:37;7.80;;;4.50;;
31406;SDS011;18043;52.438;4.836;2022-08-01T02:18:10;6.70;;;4.68;;
31406;SDS011;18043;52.438;4.836;2022-08-01T02:20:42;7.35;;;4.70;;
31406;SDS011;18043;52.438;4.836;2022-08-01T02:23:15;8.02;;;4.30;;
31406;SDS011;18043;52.438;4.836;2022-08-01T02:25:48;5.65;;;4.38;;
31406;SDS011;18043;52.438;4.836;2022-08-01T02:28:24;6.85;;;4.70;;
31406;SDS011;18043;52.438;4.836;2022-08-01T02:31:02;6.68;;;4.15;;
31406;SDS011;18043;52.438;4.836;2022-08-01T02:33:39;8.07;;;4.75;;
31406;SDS011;18043;52.438;4.836;2022-08-01T02:36:15;5.57;;;4.15;;
31406;SDS011;18043;52.438;4.836;2022-08-01T02:38:49;6.20;;;4.00;;
31406;SDS011;18043;52.438;4.836;2022-08-01T02:41:23;6.95;;;4.13;;
31406;SDS011;18043;52.438;4.836;2022-08-01T02:43:59;3.92;;;3.53;;
31406;SDS011;18043;52.438;4.836;2022-08-01T02:46:36;5.32;;;3.42;;
31406;SDS011;18043;52.438;4.836;2022-08-01T02:49:11;4.60;;;3.10;;
31406;SDS011;18043;52.438;4.836;2022-08-01T02:51:44;7.82;;;4.10;;
31406;SDS011;18043;52.438;4.836;2022-08-01T02:54:18;4.70;;;3.25;;
31406;SDS011;18043;52.438;4.836;2022-08-01T02:56:53;6.35;;;3.33;;
31406;SDS011;18043;52.438;4.836;2022-08-01T02:59:27;6.43;;;3.40;;
31406;SDS011;18043;52.438;4.836;2022-08-01T03:02:02;5.43;;;3.00;;
31406;SDS011;18043;52.438;4.836;2022-08-01T03:04:36;8.05;;;3.78;;
31406;SDS011;18043;52.438;4.836;2022-08-01T03:07:11;6.43;;;3.70;;
31406;SDS011;18043;52.438;4.836;2022-08-01T03:09:45;5.32;;;3.63;;
31406;SDS011;18043;52.438;4.836;2022-08-01T03:12:19;5.73;;;2.80;;
31406;SDS011;18043;52.438;4.836;2022-08-01T03:14:56;4.95;;;3.13;;
31406;SDS011;18043;52.438;4.836;2022-08-01T03:17:31;3.05;;;2.20;;
31406;SDS011;18043;52.438;4.836;2022-08-01T03:20:05;3.78;;;2.60;;
31406;SDS011;18043;52.438;4.836;2022-08-01T03:22:42;5.43;;;2.45;;
31406;SDS011;18043;52.438;4.836;2022-08-01T03:25:15;3.95;;;2.53;;
31406;SDS011;18043;52.438;4.836;2022-08-01T03:27:50;4.85;;;2.97;;
31406;SDS011;18043;52.438;4.836;2022-08-01T03:30:27;5.90;;;3.03;;
31406;SDS011;18043;52.438;4.836;2022-08-01T03:33:02;6.25;;;3.25;;
31406;SDS011;18043;52.438;4.836;2022-08-01T03:35:36;4.55;;;2.78;;
31406;SDS011;18043;52.438;4.836;2022-08-01T03:38:11;3.30;;;3.00;;
31406;SDS011;18043;52.438;4.836;2022-08-01T03:40:47;5.10;;;3.30;;
31406;SDS011;18043;52.438;4.836;2022-08-01T03:43:23;6.80;;;3.55;;
31406;SDS011;18043;52.438;4.836;2022-08-01T03:46:03;5.00;;;3.28;;
31406;SDS011;18043;52.438;4.836;2022-08-01T03:48:43;6.25;;;3.58;;
31406;SDS011;18043;52.438;4.836;2022-08-01T03:51:20;5.78;;;3.53;;
31406;SDS011;18043;52.438;4.836;2022-08-01T03:53:53;5.85;;;3.78;;
31406;SDS011;18043;52.438;4.836;2022-08-01T03:56:28;6.17;;;3.83;;
31406;SDS011;18043;52.438;4.836;2022-08-01T03:59:03;8.40;;;3.72;;
31406;SDS011;18043;52.438;4.836;2022-08-01T04:01:35;7.68;;;4.35;;
31406;SDS011;18043;52.438;4.836;2022-08-01T04:04:09;7.55;;;4.38;;
31406;SDS011;18043;52.438;4.836;2022-08-01T04:06:42;9.30;;;4.95;;
31406;SDS011;18043;52.438;4.836;2022-08-01T04:09:15;10.93;;;4.65;;
31406;SDS011;18043;52.438;4.836;2022-08-01T04:11:47;10.05;;;5.10;;
31406;SDS011;18043;52.438;4.836;2022-08-01T04:14:20;12.85;;;5.05;;
31406;SDS011;18043;52.438;4.836;2022-08-01T04:16:52;11.63;;;5.50;;
31406;SDS011;18043;52.438;4.836;2022-08-01T04:19:26;12.70;;;4.90;;
31406;SDS011;18043;52.438;4.836;2022-08-01T04:21:58;12.75;;;5.70;;
31406;SDS011;18043;52.438;4.836;2022-08-01T04:24:32;12.30;;;5.25;;
31406;SDS011;18043;52.438;4.836;2022-08-01T04:27:09;12.20;;;5.40;;
31406;SDS011;18043;52.438;4.836;2022-08-01T04:29:45;15.80;;;5.82;;
31406;SDS011;18043;52.438;4.836;2022-08-01T04:32:20;17.77;;;6.40;;
31406;SDS011;18043;52.438;4.836;2022-08-01T04:34:54;20.13;;;5.85;;
31406;SDS011;18043;52.438;4.836;2022-08-01T04:37:29;17.52;;;5.38;;
31406;SDS011;18043;52.438;4.836;2022-08-01T04:40:03;18.50;;;5.70;;
31406;SDS011;18043;52.438;4.836;2022-08-01T04:42:36;19.90;;;6.25;;
31406;SDS011;18043;52.438;4.836;2022-08-01T04:45:09;24.15;;;5.75;;
31406;SDS011;18043;52.438;4.836;2022-08-01T04:47:42;18.45;;;5.05;;
31406;SDS011;18043;52.438;4.836;2022-08-01T04:50:19;15.35;;;5.15;;
31406;SDS011;18043;52.438;4.836;2022-08-01T04:52:53;16.15;;;5.18;;
31406;SDS011;18043;52.438;4.836;2022-08-01T04:55:26;20.63;;;5.60;;
31406;SDS011;18043;52.438;4.836;2022-08-01T04:57:58;24.20;;;5.10;;
31406;SDS011;18043;52.438;4.836;2022-08-01T05:00:30;17.88;;;4.95;;
31406;SDS011;18043;52.438;4.836;2022-08-01T05:03:04;18.27;;;5.15;;
31406;SDS011;18043;52.438;4.836;2022-08-01T05:05:37;19.00;;;5.45;;
31406;SDS011;18043;52.438;4.836;2022-08-01T05:08:10;25.10;;;5.53;;
31406;SDS011;18043;52.438;4.836;2022-08-01T05:10:42;22.27;;;5.68;;
31406;SDS011;18043;52.438;4.836;2022-08-01T05:13:14;19.70;;;5.15;;
31406;SDS011;18043;52.438;4.836;2022-08-01T05:15:47;18.73;;;4.97;;
31406;SDS011;18043;52.438;4.836;2022-08-01T05:18:19;18.45;;;5.47;;
31406;SDS011;18043;52.438;4.836;2022-08-01T05:20:53;20.17;;;5.40;;
31406;SDS011;18043;52.438;4.836;2022-08-01T05:23:25;17.85;;;5.00;;
31406;SDS011;18043;52.438;4.836;2022-08-01T05:25:57;18.00;;;4.90;;
31406;SDS011;18043;52.438;4.836;2022-08-01T05:28:30;14.52;;;5.15;;
31406;SDS011;18043;52.438;4.836;2022-08-01T05:31:02;20.88;;;4.80;;
31406;SDS011;18043;52.438;4.836;2022-08-01T05:33:35;15.45;;;4.38;;
31406;SDS011;18043;52.438;4.836;2022-08-01T05:36:09;19.77;;;4.78;;
31406;SDS011;18043;52.438;4.836;2022-08-01T05:38:41;24.05;;;5.38;;
31406;SDS011;18043;52.438;4.836;2022-08-01T05:41:13;23.30;;;5.23;;
31406;SDS011;18043;52.438;4.836;2022-08-01T05:43:45;23.23;;;4.60;;
31406;SDS011;18043;52.438;4.836;2022-08-01T05:46:18;31.73;;;5.65;;
31406;SDS011;18043;52.438;4.836;2022-08-01T05:48:50;20.70;;;4.95;;
31406;SDS011;18043;52.438;4.836;2022-08-01T05:51:24;30.52;;;5.82;;
31406;SDS011;18043;52.438;4.836;2022-08-01T05:53:57;21.25;;;4.97;;
31406;SDS011;18043;52.438;4.836;2022-08-01T05:56:29;25.80;;;5.43;;
31406;SDS011;18043;52.438;4.836;2022-08-01T05:59:02;30.37;;;5.30;;
31406;SDS011;18043;52.438;4.836;2022-08-01T06:01:34;20.63;;;5.13;;
31406;SDS011;18043;52.438;4.836;2022-08-01T06:04:06;21.13;;;4.88;;
31406;SDS011;18043;52.438;4.836;2022-08-01T06:06:40;19.27;;;4.30;;
31406;SDS011;18043;52.438;4.836;2022-08-01T06:09:12;15.93;;;4.57;;
31406;SDS011;18043;52.438;4.836;2022-08-01T06:11:45;23.30;;;5.20;;
31406;SDS011;18043;52.438;4.836;2022-08-01T06:14:17;14.90;;;3.97;;
31406;SDS011;18043;52.438;4.836;2022-08-01T06:16:49;24.07;;;4.43;;
31406;SDS011;18043;52.438;4.836;2022-08-01T06:19:21;19.23;;;3.92;;
31406;SDS011;18043;52.438;4.836;2022-08-01T06:21:55;13.98;;;3.47;;
31406;SDS011;18043;52.438;4.836;2022-08-01T06:24:27;10.15;;;2.95;;
31406;SDS011;18043;52.438;4.836;2022-08-01T06:27:00;12.95;;;2.88;;
31406;SDS011;18043;52.438;4.836;2022-08-01T06:29:34;15.05;;;3.47;;
31406;SDS011;18043;52.438;4.836;2022-08-01T06:32:06;17.33;;;3.10;;
31406;SDS011;18043;52.438;4.836;2022-08-01T06:34:39;14.00;;;4.07;;
31406;SDS011;18043;52.438;4.836;2022-08-01T06:37:13;13.00;;;3.20;;
31406;SDS011;18043;52.438;4.836;2022-08-01T06:39:45;13.50;;;3.13;;
31406;SDS011;18043;52.438;4.836;2022-08-01T06:42:19;14.40;;;3.60;;
31406;SDS011;18043;52.438;4.836;2022-08-01T06:44:51;18.08;;;4.28;;
31406;SDS011;18043;52.438;4.836;2022-08-01T06:47:23;11.65;;;2.88;;
31406;SDS011;18043;52.438;4.836;2022-08-01T06:49:56;14.73;;;3.15;;
31406;SDS011;18043;52.438;4.836;2022-08-01T06:52:29;13.30;;;2.87;;
31406;SDS011;18043;52.438;4.836;2022-08-01T06:55:02;13.60;;;3.28;;
31406;SDS011;18043;52.438;4.836;2022-08-01T06:57:36;16.02;;;3.05;;
31406;SDS011;18043;52.438;4.836;2022-08-01T07:00:15;16.38;;;3.60;;
31406;SDS011;18043;52.438;4.836;2022-08-01T07:02:52;12.73;;;3.00;;
31406;SDS011;18043;52.438;4.836;2022-08-01T07:05:26;18.08;;;3.70;;
31406;SDS011;18043;52.438;4.836;2022-08-01T07:08:02;16.15;;;3.35;;
31406;SDS011;18043;52.438;4.836;2022-08-01T07:10:35;15.25;;;3.00;;
31406;SDS011;18043;52.438;4.836;2022-08-01T07:13:07;17.48;;;3.63;;
31406;SDS011;18043;52.438;4.836;2022-08-01T07:15:40;16.48;;;2.55;;
31406;SDS011;18043;52.438;4.836;2022-08-01T07:18:13;12.27;;;2.80;;
31406;SDS011;18043;52.438;4.836;2022-08-01T07:20:45;14.00;;;2.92;;
31406;SDS011;18043;52.438;4.836;2022-08-01T07:23:19;12.27;;;3.05;;
31406;SDS011;18043;52.438;4.836;2022-08-01T07:25:52;15.70;;;3.22;;
31406;SDS011;18043;52.438;4.836;2022-08-01T07:28:24;13.13;;;3.27;;
31406;SDS011;18043;52.438;4.836;2022-08-01T07:30:56;12.82;;;3.08;;
31406;SDS011;18043;52.438;4.836;2022-08-01T07:33:28;16.20;;;3.20;;
31406;SDS011;18043;52.438;4.836;2022-08-01T07:36:01;15.38;;;2.85;;
31406;SDS011;18043;52.438;4.836;2022-08-01T07:38:35;12.00;;;3.10;;
31406;SDS011;18043;52.438;4.836;2022-08-01T07:41:07;16.48;;;3.42;;
31406;SDS011;18043;52.438;4.836;2022-08-01T07:43:39;19.33;;;3.03;;
31406;SDS011;18043;52.438;4.836;2022-08-01T07:46:12;14.93;;;3.35;;
31406;SDS011;18043;52.438;4.836;2022-08-01T07:48:44;8.00;;;2.45;;
31406;SDS011;18043;52.438;4.836;2022-08-01T07:51:16;14.82;;;3.03;;
31406;SDS011;18043;52.438;4.836;2022-08-01T07:53:50;10.07;;;2.20;;
31406;SDS011;18043;52.438;4.836;2022-08-01T07:56:22;13.70;;;2.70;;
31406;SDS011;18043;52.438;4.836;2022-08-01T07:58:56;10.75;;;2.75;;
31406;SDS011;18043;52.438;4.836;2022-08-01T08:01:28;15.43;;;2.78;;
31406;SDS011;18043;52.438;4.836;2022-08-01T08:04:00;16.55;;;2.92;;
31406;SDS011;18043;52.438;4.836;2022-08-01T08:06:33;18.00;;;3.05;;
31406;SDS011;18043;52.438;4.836;2022-08-01T08:09:06;15.70;;;2.63;;
31406;SDS011;18043;52.438;4.836;2022-08-01T08:11:39;9.70;;;2.15;;
31406;SDS011;18043;52.438;4.836;2022-08-01T08:14:12;11.80;;;2.33;;
31406;SDS011;18043;52.438;4.836;2022-08-01T08:16:44;9.38;;;2.50;;
31406;SDS011;18043;52.438;4.836;2022-08-01T08:19:17;13.18;;;2.65;;
31406;SDS011;18043;52.438;4.836;2022-08-01T08:21:49;11.38;;;2.42;;
31406;SDS011;18043;52.438;4.836;2022-08-01T08:24:23;13.03;;;2.50;;
31406;SDS011;18043;52.438;4.836;2022-08-01T08:26:57;9.32;;;2.03;;
31406;SDS011;18043;52.438;4.836;2022-08-01T08:29:31;9.73;;;2.08;;
31406;SDS011;18043;52.438;4.836;2022-08-01T08:32:03;8.77;;;1.58;;
31406;SDS011;18043;52.438;4.836;2022-08-01T08:34:36;5.80;;;1.80;;
31406;SDS011;18043;52.438;4.836;2022-08-01T08:37:09;8.40;;;2.30;;
31406;SDS011;18043;52.438;4.836;2022-08-01T08:39:43;10.82;;;2.15;;
31406;SDS011;18043;52.438;4.836;2022-08-01T08:42:15;8.50;;;1.98;;
31406;SDS011;18043;52.438;4.836;2022-08-01T08:44:47;11.07;;;2.37;;
31406;SDS011;18043;52.438;4.836;2022-08-01T08:47:19;9.70;;;2.10;;
31406;SDS011;18043;52.438;4.836;2022-08-01T08:49:55;15.68;;;2.80;;
31406;SDS011;18043;52.438;4.836;2022-08-01T08:52:28;8.27;;;2.47;;
31406;SDS011;18043;52.438;4.836;2022-08-01T08:55:03;11.50;;;1.73;;
31406;SDS011;18043;52.438;4.836;2022-08-01T08:57:36;13.93;;;2.92;;
31406;SDS011;18043;52.438;4.836;2022-08-01T09:00:12;9.00;;;2.33;;
31406;SDS011;18043;52.438;4.836;2022-08-01T09:02:48;9.15;;;2.00;;
31406;SDS011;18043;52.438;4.836;2022-08-01T09:05:22;8.15;;;1.80;;
31406;SDS011;18043;52.438;4.836;2022-08-01T09:07:56;9.02;;;2.78;;
31406;SDS011;18043;52.438;4.836;2022-08-01T09:10:30;10.27;;;2.25;;
31406;SDS011;18043;52.438;4.836;2022-08-01T09:13:03;11.35;;;2.17;;
31406;SDS011;18043;52.438;4.836;2022-08-01T09:15:37;7.33;;;2.03;;
31406;SDS011;18043;52.438;4.836;2022-08-01T09:18:29;9.23;;;2.35;;
31406;SDS011;18043;52.438;4.836;2022-08-01T09:21:07;8.90;;;1.77;;
31406;SDS011;18043;52.438;4.836;2022-08-01T09:23:47;9.25;;;2.15;;
31406;SDS011;18043;52.438;4.836;2022-08-01T09:26:30;10.15;;;2.15;;
31406;SDS011;18043;52.438;4.836;2022-08-01T09:29:06;8.27;;;2.00;;
31406;SDS011;18043;52.438;4.836;2022-08-01T09:31:47;6.18;;;1.95;;
31406;SDS011;18043;52.438;4.836;2022-08-01T09:34:24;9.68;;;2.95;;
31406;SDS011;18043;52.438;4.836;2022-08-01T09:36:59;11.30;;;2.72;;
31406;SDS011;18043;52.438;4.836;2022-08-01T09:39:33;6.75;;;1.92;;
31406;SDS011;18043;52.438;4.836;2022-08-01T09:42:19;8.70;;;1.65;;
31406;SDS011;18043;52.438;4.836;2022-08-01T09:44:54;7.53;;;1.42;;
31406;SDS011;18043;52.438;4.836;2022-08-01T09:47:36;8.18;;;1.95;;
31406;SDS011;18043;52.438;4.836;2022-08-01T09:50:09;8.23;;;1.90;;
31406;SDS011;18043;52.438;4.836;2022-08-01T09:52:51;6.50;;;1.77;;
31406;SDS011;18043;52.438;4.836;2022-08-01T09:55:26;7.33;;;1.80;;
31406;SDS011;18043;52.438;4.836;2022-08-01T09:58:00;5.50;;;1.98;;
31406;SDS011;18043;52.438;4.836;2022-08-01T10:00:34;7.37;;;1.70;;
31406;SDS011;18043;52.438;4.836;2022-08-01T10:03:20;5.45;;;1.80;;
31406;SDS011;18043;52.438;4.836;2022-08-01T10:05:54;11.05;;;1.98;;
31406;SDS011;18043;52.438;4.836;2022-08-01T10:08:27;11.15;;;2.10;;
31406;SDS011;18043;52.438;4.836;2022-08-01T10:11:06;7.30;;;1.70;;
31406;SDS011;18043;52.438;4.836;2022-08-01T10:13:41;8.35;;;1.98;;
31406;SDS011;18043;52.438;4.836;2022-08-01T10:16:14;10.10;;;1.90;;
31406;SDS011;18043;52.438;4.836;2022-08-01T10:18:47;6.50;;;1.63;;
31406;SDS011;18043;52.438;4.836;2022-08-01T10:21:20;3.83;;;1.02;;
31406;SDS011;18043;52.438;4.836;2022-08-01T10:23:55;7.45;;;1.48;;
31406;SDS011;18043;52.438;4.836;2022-08-01T10:26:29;5.18;;;1.65;;
31406;SDS011;18043;52.438;4.836;2022-08-01T10:29:06;6.77;;;1.80;;
31406;SDS011;18043;52.438;4.836;2022-08-01T10:31:39;5.57;;;1.73;;
31406;SDS011;18043;52.438;4.836;2022-08-01T10:34:12;9.95;;;1.63;;
31406;SDS011;18043;52.438;4.836;2022-08-01T10:36:48;7.60;;;1.92;;
31406;SDS011;18043;52.438;4.836;2022-08-01T10:39:21;5.05;;;1.52;;
31406;SDS011;18043;52.438;4.836;2022-08-01T10:41:54;6.55;;;1.70;;
31406;SDS011;18043;52.438;4.836;2022-08-01T10:44:29;8.07;;;1.57;;
31406;SDS011;18043;52.438;4.836;2022-08-01T10:47:04;7.90;;;1.30;;
31406;SDS011;18043;52.438;4.836;2022-08-01T10:49:41;7.70;;;2.03;;
31406;SDS011;18043;52.438;4.836;2022-08-01T10:52:18;6.13;;;1.42;;
31406;SDS011;18043;52.438;4.836;2022-08-01T10:55:00;5.05;;;1.77;;
31406;SDS011;18043;52.438;4.836;2022-08-01T10:57:41;6.07;;;1.83;;
31406;SDS011;18043;52.438;4.836;2022-08-01T11:00:17;7.13;;;1.77;;
31406;SDS011;18043;52.438;4.836;2022-08-01T11:02:57;6.93;;;1.40;;
31406;SDS011;18043;52.438;4.836;2022-08-01T11:05:31;7.80;;;1.88;;
31406;SDS011;18043;52.438;4.836;2022-08-01T11:08:06;7.75;;;1.50;;
31406;SDS011;18043;52.438;4.836;2022-08-01T11:10:42;8.82;;;2.55;;
31406;SDS011;18043;52.438;4.836;2022-08-01T11:13:14;6.45;;;1.92;;
31406;SDS011;18043;52.438;4.836;2022-08-01T11:16:37;6.40;;;1.60;;
31406;SDS011;18043;52.438;4.836;2022-08-01T11:19:11;6.10;;;1.48;;
31406;SDS011;18043;52.438;4.836;2022-08-01T11:21:59;5.07;;;1.27;;
31406;SDS011;18043;52.438;4.836;2022-08-01T11:27:28;4.80;;;1.40;;
31406;SDS011;18043;52.438;4.836;2022-08-01T11:33:02;4.68;;;1.38;;
31406;SDS011;18043;52.438;4.836;2022-08-01T11:35:36;8.50;;;1.77;;
31406;SDS011;18043;52.438;4.836;2022-08-01T11:38:22;7.38;;;1.70;;
31406;SDS011;18043;52.438;4.836;2022-08-01T11:41:09;6.55;;;1.48;;
31406;SDS011;18043;52.438;4.836;2022-08-01T11:43:54;8.53;;;1.87;;
31406;SDS011;18043;52.438;4.836;2022-08-01T11:49:44;2.33;;;1.08;;
31406;SDS011;18043;52.438;4.836;2022-08-01T11:52:24;5.88;;;1.50;;
31406;SDS011;18043;52.438;4.836;2022-08-01T11:55:04;8.45;;;1.75;;
31406;SDS011;18043;52.438;4.836;2022-08-01T11:57:39;8.30;;;1.50;;
31406;SDS011;18043;52.438;4.836;2022-08-01T12:00:12;7.20;;;1.70;;
31406;SDS011;18043;52.438;4.836;2022-08-01T12:02:55;6.05;;;1.42;;
31406;SDS011;18043;52.438;4.836;2022-08-01T12:05:29;3.70;;;1.10;;
31406;SDS011;18043;52.438;4.836;2022-08-01T12:08:04;3.20;;;0.93;;
31406;SDS011;18043;52.438;4.836;2022-08-01T12:10:37;4.80;;;1.55;;
31406;SDS011;18043;52.438;4.836;2022-08-01T12:13:09;5.40;;;1.25;;
31406;SDS011;18043;52.438;4.836;2022-08-01T12:15:42;5.75;;;1.50;;
31406;SDS011;18043;52.438;4.836;2022-08-01T12:18:16;7.22;;;1.30;;
31406;SDS011;18043;52.438;4.836;2022-08-01T12:20:49;5.57;;;1.80;;
31406;SDS011;18043;52.438;4.836;2022-08-01T12:23:21;3.95;;;1.45;;
31406;SDS011;18043;52.438;4.836;2022-08-01T12:25:53;7.80;;;1.50;;
31406;SDS011;18043;52.438;4.836;2022-08-01T12:28:25;6.18;;;1.33;;
31406;SDS011;18043;52.438;4.836;2022-08-01T12:30:58;6.43;;;1.48;;
31406;SDS011;18043;52.438;4.836;2022-08-01T12:33:31;7.00;;;1.88;;
31406;SDS011;18043;52.438;4.836;2022-08-01T12:36:04;6.38;;;1.30;;
31406;SDS011;18043;52.438;4.836;2022-08-01T12:38:38;8.18;;;1.75;;
31406;SDS011;18043;52.438;4.836;2022-08-01T12:41:10;5.03;;;1.67;;
31406;SDS011;18043;52.438;4.836;2022-08-01T12:43:44;7.65;;;1.33;;
31406;SDS011;18043;52.438;4.836;2022-08-01T12:46:17;5.68;;;1.30;;
31406;SDS011;18043;52.438;4.836;2022-08-01T12:48:52;6.50;;;1.43;;
31406;SDS011;18043;52.438;4.836;2022-08-01T12:51:25;6.67;;;1.17;;
31406;SDS011;18043;52.438;4.836;2022-08-01T12:53:57;5.72;;;1.95;;
31406;SDS011;18043;52.438;4.836;2022-08-01T12:56:33;9.98;;;1.95;;
31406;SDS011;18043;52.438;4.836;2022-08-01T12:59:18;4.47;;;1.40;;
31406;SDS011;18043;52.438;4.836;2022-08-01T13:01:53;6.30;;;1.40;;
31406;SDS011;18043;52.438;4.836;2022-08-01T13:04:27;9.18;;;1.70;;
31406;SDS011;18043;52.438;4.836;2022-08-01T13:06:59;4.30;;;1.25;;
31406;SDS011;18043;52.438;4.836;2022-08-01T13:09:31;10.63;;;1.40;;
31406;SDS011;18043;52.438;4.836;2022-08-01T13:12:07;4.78;;;1.45;;
31406;SDS011;18043;52.438;4.836;2022-08-01T13:14:41;6.85;;;1.77;;
31406;SDS011;18043;52.438;4.836;2022-08-01T13:20:04;4.63;;;1.00;;
31406;SDS011;18043;52.438;4.836;2022-08-01T13:22:38;5.80;;;1.33;;
31406;SDS011;18043;52.438;4.836;2022-08-01T13:25:11;5.70;;;2.20;;
31406;SDS011;18043;52.438;4.836;2022-08-01T13:27:44;7.13;;;1.57;;
31406;SDS011;18043;52.438;4.836;2022-08-01T13:30:18;6.60;;;0.90;;
31406;SDS011;18043;52.438;4.836;2022-08-01T13:32:59;7.90;;;1.60;;
31406;SDS011;18043;52.438;4.836;2022-08-01T13:35:33;4.60;;;1.45;;
31406;SDS011;18043;52.438;4.836;2022-08-01T13:38:05;5.35;;;1.80;;
31406;SDS011;18043;52.438;4.836;2022-08-01T13:40:37;5.57;;;1.77;;
31406;SDS011;18043;52.438;4.836;2022-08-01T13:43:10;6.75;;;1.52;;
31406;SDS011;18043;52.438;4.836;2022-08-01T13:45:42;4.78;;;1.20;;
31406;SDS011;18043;52.438;4.836;2022-08-01T13:48:14;5.22;;;1.52;;
31406;SDS011;18043;52.438;4.836;2022-08-01T13:50:48;4.15;;;0.90;;
31406;SDS011;18043;52.438;4.836;2022-08-01T13:53:20;6.20;;;1.52;;
31406;SDS011;18043;52.438;4.836;2022-08-01T13:55:52;4.40;;;1.15;;
31406;SDS011;18043;52.438;4.836;2022-08-01T13:58:25;6.57;;;1.10;;
31406;SDS011;18043;52.438;4.836;2022-08-01T14:00:58;7.30;;;1.05;;
31406;SDS011;18043;52.438;4.836;2022-08-01T14:03:30;4.40;;;1.33;;
31406;SDS011;18043;52.438;4.836;2022-08-01T14:06:04;6.90;;;1.42;;
31406;SDS011;18043;52.438;4.836;2022-08-01T14:08:37;6.40;;;1.33;;
31406;SDS011;18043;52.438;4.836;2022-08-01T14:11:09;4.40;;;1.20;;
31406;SDS011;18043;52.438;4.836;2022-08-01T14:13:42;6.85;;;1.60;;
31406;SDS011;18043;52.438;4.836;2022-08-01T14:16:14;5.93;;;1.45;;
31406;SDS011;18043;52.438;4.836;2022-08-01T14:18:48;5.38;;;1.48;;
31406;SDS011;18043;52.438;4.836;2022-08-01T14:21:22;6.30;;;1.60;;
31406;SDS011;18043;52.438;4.836;2022-08-01T14:23:54;4.45;;;1.33;;
31406;SDS011;18043;52.438;4.836;2022-08-01T14:26:27;7.90;;;1.55;;
31406;SDS011;18043;52.438;4.836;2022-08-01T14:28:59;3.97;;;1.00;;
31406;SDS011;18043;52.438;4.836;2022-08-01T14:31:31;8.43;;;1.50;;
31406;SDS011;18043;52.438;4.836;2022-08-01T14:34:04;6.47;;;1.30;;
31406;SDS011;18043;52.438;4.836;2022-08-01T14:36:38;5.32;;;1.30;;
31406;SDS011;18043;52.438;4.836;2022-08-01T14:39:10;4.75;;;1.17;;
31406;SDS011;18043;52.438;4.836;2022-08-01T14:41:43;6.50;;;1.48;;
31406;SDS011;18043;52.438;4.836;2022-08-01T14:44:16;4.40;;;1.23;;
31406;SDS011;18043;52.438;4.836;2022-08-01T14:46:48;5.82;;;1.40;;
31406;SDS011;18043;52.438;4.836;2022-08-01T14:49:20;5.05;;;1.20;;
31406;SDS011;18043;52.438;4.836;2022-08-01T14:51:54;5.85;;;1.45;;
31406;SDS011;18043;52.438;4.836;2022-08-01T14:54:26;2.75;;;0.98;;
31406;SDS011;18043;52.438;4.836;2022-08-01T14:56:58;5.05;;;0.95;;
31406;SDS011;18043;52.438;4.836;2022-08-01T14:59:31;4.28;;;1.40;;
31406;SDS011;18043;52.438;4.836;2022-08-01T15:02:03;4.77;;;1.10;;
31406;SDS011;18043;52.438;4.836;2022-08-01T15:04:35;6.80;;;1.10;;
31406;SDS011;18043;52.438;4.836;2022-08-01T15:07:09;4.22;;;1.40;;
31406;SDS011;18043;52.438;4.836;2022-08-01T15:09:41;6.68;;;1.17;;
31406;SDS011;18043;52.438;4.836;2022-08-01T15:12:15;6.05;;;1.40;;
31406;SDS011;18043;52.438;4.836;2022-08-01T15:14:47;5.28;;;1.45;;
31406;SDS011;18043;52.438;4.836;2022-08-01T15:17:20;5.95;;;1.60;;
31406;SDS011;18043;52.438;4.836;2022-08-01T15:19:55;6.57;;;1.38;;
31406;SDS011;18043;52.438;4.836;2022-08-01T15:22:30;5.57;;;1.42;;
31406;SDS011;18043;52.438;4.836;2022-08-01T15:25:03;3.28;;;0.80;;
31406;SDS011;18043;52.438;4.836;2022-08-01T15:27:37;7.32;;;1.35;;
31406;SDS011;18043;52.438;4.836;2022-08-01T15:30:09;4.10;;;1.30;;
31406;SDS011;18043;52.438;4.836;2022-08-01T15:32:42;3.95;;;0.95;;
31406;SDS011;18043;52.438;4.836;2022-08-01T15:35:15;4.55;;;1.05;;
31406;SDS011;18043;52.438;4.836;2022-08-01T15:37:48;2.97;;;1.00;;